sensor_id;sensor_type;location;lat;lon;timestamp;P1;durP1;ratioP1;P2;durP2;ratioP2
10661;SDS011;5379;51.034;7.006;2022-12-20T00:01:11;2.47;;;1.83;;
10661;SDS011;5379;51.034;7.006;2022-12-20T00:03:39;1.40;;;1.40;;
10661;SDS011;5379;51.034;7.006;2022-12-20T00:06:07;2.00;;;1.80;;
10661;SDS011;5379;51.034;7.006;2022-12-20T00:08:35;2.03;;;1.83;;
10661;SDS011;5379;51.034;7.006;2022-12-20T00:11:03;3.47;;;1.47;;
10661;SDS011;5379;51.034;7.006;2022-12-20T00:13:35;1.80;;;1.70;;
10661;SDS011;5379;51.034;7.006;2022-12-20T00:16:03;1.30;;;1.30;;
10661;SDS011;5379;51.034;7.006;2022-12-20T00:18:32;1.80;;;1.70;;
10661;SDS011;5379;51.034;7.006;2022-12-20T00:21:01;3.27;;;1.50;;
10661;SDS011;5379;51.034;7.006;2022-12-20T00:23:29;1.80;;;1.70;;
10661;SDS011;5379;51.034;7.006;2022-12-20T00:26:00;2.27;;;1.97;;
10661;SDS011;5379;51.034;7.006;2022-12-20T00:28:29;1.60;;;1.50;;
10661;SDS011;5379;51.034;7.006;2022-12-20T00:30:58;2.10;;;1.50;;
10661;SDS011;5379;51.034;7.006;2022-12-20T00:33:25;3.57;;;1.83;;
10661;SDS011;5379;51.034;7.006;2022-12-20T00:35:53;2.00;;;1.60;;
10661;SDS011;5379;51.034;7.006;2022-12-20T00:38:21;1.87;;;1.77;;
10661;SDS011;5379;51.034;7.006;2022-12-20T00:40:57;2.07;;;1.47;;
10661;SDS011;5379;51.034;7.006;2022-12-20T00:43:25;2.67;;;1.93;;
10661;SDS011;5379;51.034;7.006;2022-12-20T00:45:52;3.83;;;1.67;;
10661;SDS011;5379;51.034;7.006;2022-12-20T00:48:21;4.67;;;2.27;;
10661;SDS011;5379;51.034;7.006;2022-12-20T00:50:49;2.10;;;1.77;;
10661;SDS011;5379;51.034;7.006;2022-12-20T00:53:16;2.33;;;1.70;;
10661;SDS011;5379;51.034;7.006;2022-12-20T00:55:43;4.43;;;1.80;;
10661;SDS011;5379;51.034;7.006;2022-12-20T00:58:11;2.10;;;1.60;;
10661;SDS011;5379;51.034;7.006;2022-12-20T01:00:39;1.70;;;1.60;;
10661;SDS011;5379;51.034;7.006;2022-12-20T01:03:06;1.80;;;1.70;;
10661;SDS011;5379;51.034;7.006;2022-12-20T01:05:35;3.83;;;1.70;;
10661;SDS011;5379;51.034;7.006;2022-12-20T01:08:03;2.20;;;1.77;;
10661;SDS011;5379;51.034;7.006;2022-12-20T01:10:31;1.93;;;1.80;;
10661;SDS011;5379;51.034;7.006;2022-12-20T01:12:58;1.80;;;1.70;;
10661;SDS011;5379;51.034;7.006;2022-12-20T01:15:25;2.10;;;1.63;;
10661;SDS011;5379;51.034;7.006;2022-12-20T01:17:52;2.17;;;1.97;;
10661;SDS011;5379;51.034;7.006;2022-12-20T01:20:19;4.33;;;1.90;;
10661;SDS011;5379;51.034;7.006;2022-12-20T01:22:48;2.20;;;1.63;;
10661;SDS011;5379;51.034;7.006;2022-12-20T01:25:15;1.80;;;1.70;;
10661;SDS011;5379;51.034;7.006;2022-12-20T01:27:42;1.53;;;1.50;;
10661;SDS011;5379;51.034;7.006;2022-12-20T05:31:19;7.47;;;4.00;;
10661;SDS011;5379;51.034;7.006;2022-12-20T05:33:46;4.53;;;3.47;;
10661;SDS011;5379;51.034;7.006;2022-12-20T05:36:13;4.73;;;2.97;;
10661;SDS011;5379;51.034;7.006;2022-12-20T05:38:40;4.77;;;3.70;;
10661;SDS011;5379;51.034;7.006;2022-12-20T05:41:07;5.23;;;3.90;;
10661;SDS011;5379;51.034;7.006;2022-12-20T05:43:34;4.07;;;3.30;;
10661;SDS011;5379;51.034;7.006;2022-12-20T05:46:01;5.67;;;3.70;;
10661;SDS011;5379;51.034;7.006;2022-12-20T05:48:29;5.13;;;3.53;;
10661;SDS011;5379;51.034;7.006;2022-12-20T05:50:58;6.27;;;3.33;;
10661;SDS011;5379;51.034;7.006;2022-12-20T05:53:25;6.27;;;2.93;;
10661;SDS011;5379;51.034;7.006;2022-12-20T05:55:52;3.80;;;2.87;;
10661;SDS011;5379;51.034;7.006;2022-12-20T05:58:19;3.13;;;2.93;;
10661;SDS011;5379;51.034;7.006;2022-12-20T06:00:46;13.67;;;3.53;;
10661;SDS011;5379;51.034;7.006;2022-12-20T06:03:14;4.27;;;2.93;;
10661;SDS011;5379;51.034;7.006;2022-12-20T06:05:42;4.67;;;3.07;;
10661;SDS011;5379;51.034;7.006;2022-12-20T06:08:10;5.47;;;3.37;;
10661;SDS011;5379;51.034;7.006;2022-12-20T06:10:38;3.23;;;2.77;;
10661;SDS011;5379;51.034;7.006;2022-12-20T06:13:06;3.50;;;3.20;;
10661;SDS011;5379;51.034;7.006;2022-12-20T06:15:34;3.97;;;2.50;;
10661;SDS011;5379;51.034;7.006;2022-12-20T06:18:01;10.87;;;3.00;;
10661;SDS011;5379;51.034;7.006;2022-12-20T06:20:28;3.57;;;3.20;;
10661;SDS011;5379;51.034;7.006;2022-12-20T06:22:56;12.57;;;3.17;;
10661;SDS011;5379;51.034;7.006;2022-12-20T06:25:24;3.07;;;2.83;;
10661;SDS011;5379;51.034;7.006;2022-12-20T06:27:51;7.03;;;3.33;;
10661;SDS011;5379;51.034;7.006;2022-12-20T06:30:18;3.37;;;3.07;;
10661;SDS011;5379;51.034;7.006;2022-12-20T06:32:45;6.40;;;2.67;;
10661;SDS011;5379;51.034;7.006;2022-12-20T06:35:12;2.83;;;2.60;;
10661;SDS011;5379;51.034;7.006;2022-12-20T06:37:40;2.53;;;2.37;;
10661;SDS011;5379;51.034;7.006;2022-12-20T06:40:09;4.97;;;3.20;;
10661;SDS011;5379;51.034;7.006;2022-12-20T06:42:38;7.53;;;2.93;;
10661;SDS011;5379;51.034;7.006;2022-12-20T06:45:06;2.80;;;2.60;;
10661;SDS011;5379;51.034;7.006;2022-12-20T06:47:34;3.23;;;2.93;;
10661;SDS011;5379;51.034;7.006;2022-12-20T06:50:01;4.30;;;2.50;;
10661;SDS011;5379;51.034;7.006;2022-12-20T06:52:28;3.53;;;2.50;;
10661;SDS011;5379;51.034;7.006;2022-12-20T06:54:55;8.90;;;2.97;;
10661;SDS011;5379;51.034;7.006;2022-12-20T06:57:23;3.00;;;2.43;;
10661;SDS011;5379;51.034;7.006;2022-12-20T06:59:50;3.40;;;2.80;;
10661;SDS011;5379;51.034;7.006;2022-12-20T07:02:17;4.40;;;2.97;;
10661;SDS011;5379;51.034;7.006;2022-12-20T07:04:44;3.23;;;2.73;;
10661;SDS011;5379;51.034;7.006;2022-12-20T07:07:11;3.17;;;2.87;;
10661;SDS011;5379;51.034;7.006;2022-12-20T07:09:38;2.37;;;2.27;;
10661;SDS011;5379;51.034;7.006;2022-12-20T07:12:06;2.53;;;2.37;;
10661;SDS011;5379;51.034;7.006;2022-12-20T07:14:35;2.57;;;2.47;;
10661;SDS011;5379;51.034;7.006;2022-12-20T07:17:02;3.07;;;2.50;;
10661;SDS011;5379;51.034;7.006;2022-12-20T07:19:31;2.57;;;2.13;;
10661;SDS011;5379;51.034;7.006;2022-12-20T07:21:58;4.83;;;2.60;;
10661;SDS011;5379;51.034;7.006;2022-12-20T07:24:25;3.03;;;2.80;;
10661;SDS011;5379;51.034;7.006;2022-12-20T07:26:52;4.03;;;2.67;;
10661;SDS011;5379;51.034;7.006;2022-12-20T07:29:19;3.27;;;2.63;;
10661;SDS011;5379;51.034;7.006;2022-12-20T07:31:47;2.17;;;2.07;;
10661;SDS011;5379;51.034;7.006;2022-12-20T07:34:14;2.60;;;2.40;;
10661;SDS011;5379;51.034;7.006;2022-12-20T07:36:41;2.40;;;2.20;;
10661;SDS011;5379;51.034;7.006;2022-12-20T07:39:08;6.63;;;2.40;;
10661;SDS011;5379;51.034;7.006;2022-12-20T07:41:36;5.10;;;3.00;;
10661;SDS011;5379;51.034;7.006;2022-12-20T07:44:03;2.37;;;2.10;;
10661;SDS011;5379;51.034;7.006;2022-12-20T07:46:30;2.93;;;2.70;;
10661;SDS011;5379;51.034;7.006;2022-12-20T07:48:58;2.50;;;2.30;;
10661;SDS011;5379;51.034;7.006;2022-12-20T07:51:27;3.00;;;2.60;;
10661;SDS011;5379;51.034;7.006;2022-12-20T07:53:58;4.57;;;3.00;;
10661;SDS011;5379;51.034;7.006;2022-12-20T07:56:30;2.63;;;2.40;;
10661;SDS011;5379;51.034;7.006;2022-12-20T07:58:59;2.77;;;2.33;;
10661;SDS011;5379;51.034;7.006;2022-12-20T08:01:28;3.47;;;2.33;;
10661;SDS011;5379;51.034;7.006;2022-12-20T08:03:56;3.27;;;2.87;;
10661;SDS011;5379;51.034;7.006;2022-12-20T08:06:29;5.73;;;3.03;;
10661;SDS011;5379;51.034;7.006;2022-12-20T08:08:57;2.73;;;2.40;;
10661;SDS011;5379;51.034;7.006;2022-12-20T08:11:29;4.70;;;2.67;;
10661;SDS011;5379;51.034;7.006;2022-12-20T08:13:58;2.73;;;2.53;;
10661;SDS011;5379;51.034;7.006;2022-12-20T08:16:25;6.70;;;2.53;;
10661;SDS011;5379;51.034;7.006;2022-12-20T08:18:52;7.00;;;5.57;;
10661;SDS011;5379;51.034;7.006;2022-12-20T08:21:21;6.63;;;5.43;;
10661;SDS011;5379;51.034;7.006;2022-12-20T08:23:48;5.57;;;5.07;;
10661;SDS011;5379;51.034;7.006;2022-12-20T08:26:16;5.07;;;4.20;;
10661;SDS011;5379;51.034;7.006;2022-12-20T08:28:43;4.90;;;3.77;;
10661;SDS011;5379;51.034;7.006;2022-12-20T08:31:10;3.97;;;2.90;;
10661;SDS011;5379;51.034;7.006;2022-12-20T08:33:38;3.97;;;3.10;;
10661;SDS011;5379;51.034;7.006;2022-12-20T08:36:06;2.07;;;1.97;;
10661;SDS011;5379;51.034;7.006;2022-12-20T08:38:35;5.83;;;2.77;;
10661;SDS011;5379;51.034;7.006;2022-12-20T08:41:03;3.20;;;2.40;;
10661;SDS011;5379;51.034;7.006;2022-12-20T08:43:31;1.93;;;1.83;;
10661;SDS011;5379;51.034;7.006;2022-12-20T08:45:59;4.00;;;1.87;;
10661;SDS011;5379;51.034;7.006;2022-12-20T08:48:26;6.60;;;2.57;;
10661;SDS011;5379;51.034;7.006;2022-12-20T08:50:53;2.50;;;2.30;;
10661;SDS011;5379;51.034;7.006;2022-12-20T08:53:21;8.73;;;2.20;;
10661;SDS011;5379;51.034;7.006;2022-12-20T08:55:50;2.57;;;2.37;;
10661;SDS011;5379;51.034;7.006;2022-12-20T08:58:17;2.50;;;2.30;;
10661;SDS011;5379;51.034;7.006;2022-12-20T09:00:45;2.60;;;2.30;;
10661;SDS011;5379;51.034;7.006;2022-12-20T09:03:12;2.60;;;2.40;;
10661;SDS011;5379;51.034;7.006;2022-12-20T09:05:43;13.80;;;12.00;;
10661;SDS011;5379;51.034;7.006;2022-12-20T09:08:11;2.70;;;2.50;;
10661;SDS011;5379;51.034;7.006;2022-12-20T09:10:39;2.47;;;2.27;;
10661;SDS011;5379;51.034;7.006;2022-12-20T09:13:07;3.73;;;2.20;;
10661;SDS011;5379;51.034;7.006;2022-12-20T09:15:35;4.40;;;2.43;;
10661;SDS011;5379;51.034;7.006;2022-12-20T09:18:02;2.50;;;2.30;;
10661;SDS011;5379;51.034;7.006;2022-12-20T09:20:29;3.70;;;2.60;;
10661;SDS011;5379;51.034;7.006;2022-12-20T09:22:57;2.40;;;2.20;;
10661;SDS011;5379;51.034;7.006;2022-12-20T09:25:24;4.57;;;2.20;;
10661;SDS011;5379;51.034;7.006;2022-12-20T09:27:52;2.70;;;2.40;;
10661;SDS011;5379;51.034;7.006;2022-12-20T09:30:21;2.43;;;2.23;;
10661;SDS011;5379;51.034;7.006;2022-12-20T09:32:49;9.90;;;2.60;;
10661;SDS011;5379;51.034;7.006;2022-12-20T09:35:16;1.97;;;1.87;;
10661;SDS011;5379;51.034;7.006;2022-12-20T09:37:43;4.30;;;2.17;;
10661;SDS011;5379;51.034;7.006;2022-12-20T09:40:13;4.00;;;1.97;;
10661;SDS011;5379;51.034;7.006;2022-12-20T09:42:45;3.70;;;2.27;;
10661;SDS011;5379;51.034;7.006;2022-12-20T09:45:18;2.50;;;2.30;;
10661;SDS011;5379;51.034;7.006;2022-12-20T09:47:51;2.50;;;2.03;;
10661;SDS011;5379;51.034;7.006;2022-12-20T09:50:18;2.73;;;2.50;;
10661;SDS011;5379;51.034;7.006;2022-12-20T09:52:54;7.70;;;2.43;;
10661;SDS011;5379;51.034;7.006;2022-12-20T09:55:30;6.20;;;2.27;;
10661;SDS011;5379;51.034;7.006;2022-12-20T09:58:05;2.20;;;2.00;;
10661;SDS011;5379;51.034;7.006;2022-12-20T10:00:45;2.67;;;2.47;;
10661;SDS011;5379;51.034;7.006;2022-12-20T10:03:16;3.93;;;2.33;;
10661;SDS011;5379;51.034;7.006;2022-12-20T10:05:47;2.00;;;1.90;;
10661;SDS011;5379;51.034;7.006;2022-12-20T10:08:36;2.20;;;2.10;;
10661;SDS011;5379;51.034;7.006;2022-12-20T10:11:12;12.07;;;2.97;;
10661;SDS011;5379;51.034;7.006;2022-12-20T10:13:54;5.90;;;2.67;;
10661;SDS011;5379;51.034;7.006;2022-12-20T10:16:32;2.50;;;2.30;;
10661;SDS011;5379;51.034;7.006;2022-12-20T10:19:13;6.93;;;2.70;;
10661;SDS011;5379;51.034;7.006;2022-12-20T10:21:51;3.43;;;2.43;;
10661;SDS011;5379;51.034;7.006;2022-12-20T10:24:24;5.60;;;2.27;;
10661;SDS011;5379;51.034;7.006;2022-12-20T10:26:54;2.87;;;2.33;;
10661;SDS011;5379;51.034;7.006;2022-12-20T10:29:21;2.57;;;2.23;;
10661;SDS011;5379;51.034;7.006;2022-12-20T10:31:51;5.97;;;2.17;;
10661;SDS011;5379;51.034;7.006;2022-12-20T10:34:19;7.57;;;2.40;;
10661;SDS011;5379;51.034;7.006;2022-12-20T10:36:46;2.97;;;2.67;;
10661;SDS011;5379;51.034;7.006;2022-12-20T10:39:16;6.13;;;2.60;;
10661;SDS011;5379;51.034;7.006;2022-12-20T10:42:08;2.50;;;2.07;;
10661;SDS011;5379;51.034;7.006;2022-12-20T10:44:50;3.80;;;2.50;;
10661;SDS011;5379;51.034;7.006;2022-12-20T10:47:24;2.20;;;2.00;;
10661;SDS011;5379;51.034;7.006;2022-12-20T10:50:06;3.40;;;2.37;;
10661;SDS011;5379;51.034;7.006;2022-12-20T10:52:35;2.10;;;2.00;;
10661;SDS011;5379;51.034;7.006;2022-12-20T10:55:06;3.30;;;2.20;;
10661;SDS011;5379;51.034;7.006;2022-12-20T10:58:01;2.07;;;1.93;;
10661;SDS011;5379;51.034;7.006;2022-12-20T11:00:30;2.23;;;2.07;;
10661;SDS011;5379;51.034;7.006;2022-12-20T11:03:03;3.73;;;2.87;;
10661;SDS011;5379;51.034;7.006;2022-12-20T11:05:35;2.27;;;2.13;;
10661;SDS011;5379;51.034;7.006;2022-12-20T11:08:06;2.90;;;2.10;;
10661;SDS011;5379;51.034;7.006;2022-12-20T11:10:39;3.63;;;2.63;;
10661;SDS011;5379;51.034;7.006;2022-12-20T11:13:09;2.00;;;1.90;;
10661;SDS011;5379;51.034;7.006;2022-12-20T11:15:47;4.70;;;2.70;;
10661;SDS011;5379;51.034;7.006;2022-12-20T11:18:18;2.63;;;2.43;;
10661;SDS011;5379;51.034;7.006;2022-12-20T11:20:55;2.50;;;2.30;;
10661;SDS011;5379;51.034;7.006;2022-12-20T11:23:30;4.10;;;2.13;;
10661;SDS011;5379;51.034;7.006;2022-12-20T11:26:08;2.20;;;2.00;;
10661;SDS011;5379;51.034;7.006;2022-12-20T11:28:50;2.90;;;2.47;;
10661;SDS011;5379;51.034;7.006;2022-12-20T11:31:28;2.87;;;2.33;;
10661;SDS011;5379;51.034;7.006;2022-12-20T11:34:11;2.50;;;2.10;;
10661;SDS011;5379;51.034;7.006;2022-12-20T11:36:53;4.67;;;2.40;;
10661;SDS011;5379;51.034;7.006;2022-12-20T11:39:43;4.50;;;2.23;;
10661;SDS011;5379;51.034;7.006;2022-12-20T11:42:26;2.60;;;2.40;;
10661;SDS011;5379;51.034;7.006;2022-12-20T11:45:08;3.33;;;2.10;;
10661;SDS011;5379;51.034;7.006;2022-12-20T11:47:48;2.50;;;2.20;;
10661;SDS011;5379;51.034;7.006;2022-12-20T11:50:44;2.73;;;1.87;;
10661;SDS011;5379;51.034;7.006;2022-12-20T11:53:24;4.63;;;1.83;;
10661;SDS011;5379;51.034;7.006;2022-12-20T11:55:57;3.53;;;2.20;;
10661;SDS011;5379;51.034;7.006;2022-12-20T11:58:31;2.00;;;1.90;;
10661;SDS011;5379;51.034;7.006;2022-12-20T12:01:07;7.03;;;2.27;;
10661;SDS011;5379;51.034;7.006;2022-12-20T12:03:38;5.90;;;2.40;;
10661;SDS011;5379;51.034;7.006;2022-12-20T12:06:10;2.13;;;1.93;;
10661;SDS011;5379;51.034;7.006;2022-12-20T12:08:47;3.10;;;2.80;;
10661;SDS011;5379;51.034;7.006;2022-12-20T12:11:18;3.90;;;2.33;;
10661;SDS011;5379;51.034;7.006;2022-12-20T12:13:48;2.67;;;2.33;;
10661;SDS011;5379;51.034;7.006;2022-12-20T12:16:17;3.17;;;2.23;;
10661;SDS011;5379;51.034;7.006;2022-12-20T12:18:47;6.13;;;1.50;;
10661;SDS011;5379;51.034;7.006;2022-12-20T12:21:18;2.10;;;1.97;;
10661;SDS011;5379;51.034;7.006;2022-12-20T12:23:52;2.27;;;2.00;;
10661;SDS011;5379;51.034;7.006;2022-12-20T12:26:27;2.10;;;1.67;;
10661;SDS011;5379;51.034;7.006;2022-12-20T12:28:56;7.53;;;2.20;;
10661;SDS011;5379;51.034;7.006;2022-12-20T12:31:26;3.03;;;2.10;;
10661;SDS011;5379;51.034;7.006;2022-12-20T12:34:03;2.53;;;2.00;;
10661;SDS011;5379;51.034;7.006;2022-12-20T12:36:41;3.33;;;2.40;;
10661;SDS011;5379;51.034;7.006;2022-12-20T12:39:43;2.10;;;1.87;;
10661;SDS011;5379;51.034;7.006;2022-12-20T12:45:19;3.63;;;2.43;;
10661;SDS011;5379;51.034;7.006;2022-12-20T12:47:54;7.27;;;2.23;;
10661;SDS011;5379;51.034;7.006;2022-12-20T12:50:25;4.10;;;2.93;;
10661;SDS011;5379;51.034;7.006;2022-12-20T12:52:56;9.20;;;2.90;;
10661;SDS011;5379;51.034;7.006;2022-12-20T12:55:34;4.47;;;2.77;;
10661;SDS011;5379;51.034;7.006;2022-12-20T13:01:02;7.93;;;2.67;;
10661;SDS011;5379;51.034;7.006;2022-12-20T13:03:40;11.63;;;2.83;;
10661;SDS011;5379;51.034;7.006;2022-12-20T13:09:34;5.90;;;2.40;;
10661;SDS011;5379;51.034;7.006;2022-12-20T13:18:31;6.47;;;3.27;;
10661;SDS011;5379;51.034;7.006;2022-12-20T13:21:23;4.90;;;2.73;;
10661;SDS011;5379;51.034;7.006;2022-12-20T13:35:54;4.53;;;2.73;;
10661;SDS011;5379;51.034;7.006;2022-12-20T13:38:37;5.73;;;2.87;;
10661;SDS011;5379;51.034;7.006;2022-12-20T13:41:20;5.10;;;3.03;;
10661;SDS011;5379;51.034;7.006;2022-12-20T13:44:23;7.13;;;2.80;;
10661;SDS011;5379;51.034;7.006;2022-12-20T13:47:11;4.90;;;2.90;;
10661;SDS011;5379;51.034;7.006;2022-12-20T13:50:25;6.60;;;3.50;;
10661;SDS011;5379;51.034;7.006;2022-12-20T13:52:56;4.00;;;3.40;;
10661;SDS011;5379;51.034;7.006;2022-12-20T13:55:31;6.63;;;3.00;;
10661;SDS011;5379;51.034;7.006;2022-12-20T13:58:04;5.07;;;2.87;;
10661;SDS011;5379;51.034;7.006;2022-12-20T14:00:37;6.27;;;2.40;;
10661;SDS011;5379;51.034;7.006;2022-12-20T14:03:05;5.37;;;2.97;;
10661;SDS011;5379;51.034;7.006;2022-12-20T14:05:46;9.87;;;3.13;;
10661;SDS011;5379;51.034;7.006;2022-12-20T14:08:14;4.77;;;2.27;;
10661;SDS011;5379;51.034;7.006;2022-12-20T14:10:43;2.93;;;2.53;;
10661;SDS011;5379;51.034;7.006;2022-12-20T14:13:18;2.97;;;2.67;;
10661;SDS011;5379;51.034;7.006;2022-12-20T14:15:49;2.20;;;2.10;;
10661;SDS011;5379;51.034;7.006;2022-12-20T14:18:17;5.73;;;2.70;;
10661;SDS011;5379;51.034;7.006;2022-12-20T14:20:46;3.63;;;2.67;;
10661;SDS011;5379;51.034;7.006;2022-12-20T14:23:16;7.23;;;2.70;;
10661;SDS011;5379;51.034;7.006;2022-12-20T14:25:46;3.03;;;2.70;;
10661;SDS011;5379;51.034;7.006;2022-12-20T14:28:27;6.50;;;3.33;;
10661;SDS011;5379;51.034;7.006;2022-12-20T14:30:59;2.87;;;2.67;;
10661;SDS011;5379;51.034;7.006;2022-12-20T14:33:28;3.77;;;2.70;;
10661;SDS011;5379;51.034;7.006;2022-12-20T14:36:06;3.13;;;2.53;;
10661;SDS011;5379;51.034;7.006;2022-12-20T14:38:34;7.40;;;2.70;;
10661;SDS011;5379;51.034;7.006;2022-12-20T14:41:02;5.40;;;3.00;;
10661;SDS011;5379;51.034;7.006;2022-12-20T14:43:31;4.20;;;2.80;;
10661;SDS011;5379;51.034;7.006;2022-12-20T14:46:16;9.93;;;3.03;;
10661;SDS011;5379;51.034;7.006;2022-12-20T14:48:46;5.23;;;2.97;;
10661;SDS011;5379;51.034;7.006;2022-12-20T14:51:18;14.73;;;3.07;;
10661;SDS011;5379;51.034;7.006;2022-12-20T14:53:46;3.20;;;2.90;;
10661;SDS011;5379;51.034;7.006;2022-12-20T14:56:16;10.97;;;3.87;;
10661;SDS011;5379;51.034;7.006;2022-12-20T14:58:47;5.73;;;4.27;;
10661;SDS011;5379;51.034;7.006;2022-12-20T15:01:29;7.93;;;3.50;;
10661;SDS011;5379;51.034;7.006;2022-12-20T15:03:57;3.97;;;2.97;;
10661;SDS011;5379;51.034;7.006;2022-12-20T15:06:31;3.40;;;2.70;;
10661;SDS011;5379;51.034;7.006;2022-12-20T15:09:00;5.93;;;2.90;;
10661;SDS011;5379;51.034;7.006;2022-12-20T15:11:29;4.63;;;2.60;;
10661;SDS011;5379;51.034;7.006;2022-12-20T15:13:56;4.07;;;2.43;;
10661;SDS011;5379;51.034;7.006;2022-12-20T15:16:24;5.83;;;2.60;;
10661;SDS011;5379;51.034;7.006;2022-12-20T15:18:55;3.33;;;2.60;;
10661;SDS011;5379;51.034;7.006;2022-12-20T15:21:26;3.97;;;3.00;;
10661;SDS011;5379;51.034;7.006;2022-12-20T15:23:56;3.33;;;3.10;;
10661;SDS011;5379;51.034;7.006;2022-12-20T15:26:26;6.43;;;3.83;;
10661;SDS011;5379;51.034;7.006;2022-12-20T15:28:53;4.37;;;2.93;;
10661;SDS011;5379;51.034;7.006;2022-12-20T15:31:21;6.93;;;3.27;;
10661;SDS011;5379;51.034;7.006;2022-12-20T15:33:50;4.80;;;3.50;;
10661;SDS011;5379;51.034;7.006;2022-12-20T15:36:20;4.30;;;2.90;;
10661;SDS011;5379;51.034;7.006;2022-12-20T15:38:50;2.77;;;2.57;;
10661;SDS011;5379;51.034;7.006;2022-12-20T15:41:18;6.63;;;3.17;;
10661;SDS011;5379;51.034;7.006;2022-12-20T15:43:48;3.20;;;2.93;;
10661;SDS011;5379;51.034;7.006;2022-12-20T15:46:17;6.30;;;2.43;;
10661;SDS011;5379;51.034;7.006;2022-12-20T15:48:44;3.00;;;2.50;;
10661;SDS011;5379;51.034;7.006;2022-12-20T15:51:13;3.00;;;2.80;;
10661;SDS011;5379;51.034;7.006;2022-12-20T15:53:44;4.97;;;3.17;;
10661;SDS011;5379;51.034;7.006;2022-12-20T15:56:13;10.60;;;4.10;;
10661;SDS011;5379;51.034;7.006;2022-12-20T15:58:45;5.00;;;3.27;;
10661;SDS011;5379;51.034;7.006;2022-12-20T16:01:15;3.87;;;3.47;;
10661;SDS011;5379;51.034;7.006;2022-12-20T16:03:43;4.83;;;3.57;;
10661;SDS011;5379;51.034;7.006;2022-12-20T16:06:11;3.47;;;2.77;;
10661;SDS011;5379;51.034;7.006;2022-12-20T16:08:38;8.77;;;3.40;;
10661;SDS011;5379;51.034;7.006;2022-12-20T16:11:10;3.87;;;3.47;;
10661;SDS011;5379;51.034;7.006;2022-12-20T16:13:45;3.30;;;3.00;;
10661;SDS011;5379;51.034;7.006;2022-12-20T16:16:12;3.60;;;3.17;;
10661;SDS011;5379;51.034;7.006;2022-12-20T16:18:42;7.30;;;3.13;;
10661;SDS011;5379;51.034;7.006;2022-12-20T16:21:12;7.70;;;3.30;;
10661;SDS011;5379;51.034;7.006;2022-12-20T16:23:42;3.43;;;3.23;;
10661;SDS011;5379;51.034;7.006;2022-12-20T16:26:12;7.93;;;3.30;;
10661;SDS011;5379;51.034;7.006;2022-12-20T16:28:40;3.43;;;2.90;;
10661;SDS011;5379;51.034;7.006;2022-12-20T16:31:14;3.93;;;2.87;;
10661;SDS011;5379;51.034;7.006;2022-12-20T16:33:46;5.00;;;3.30;;
10661;SDS011;5379;51.034;7.006;2022-12-20T16:36:14;3.43;;;2.63;;
10661;SDS011;5379;51.034;7.006;2022-12-20T16:38:41;3.07;;;2.60;;
10661;SDS011;5379;51.034;7.006;2022-12-20T16:41:13;3.50;;;2.80;;
10661;SDS011;5379;51.034;7.006;2022-12-20T16:43:43;7.27;;;3.30;;
10661;SDS011;5379;51.034;7.006;2022-12-20T16:46:11;3.40;;;3.20;;
10661;SDS011;5379;51.034;7.006;2022-12-20T16:48:39;6.17;;;3.50;;
10661;SDS011;5379;51.034;7.006;2022-12-20T16:53:51;4.00;;;3.10;;
10661;SDS011;5379;51.034;7.006;2022-12-20T16:56:20;5.93;;;3.63;;
10661;SDS011;5379;51.034;7.006;2022-12-20T16:58:49;8.47;;;3.30;;
10661;SDS011;5379;51.034;7.006;2022-12-20T17:01:17;8.40;;;3.37;;
10661;SDS011;5379;51.034;7.006;2022-12-20T17:03:47;4.40;;;3.53;;
10661;SDS011;5379;51.034;7.006;2022-12-20T17:06:15;5.83;;;3.80;;
10661;SDS011;5379;51.034;7.006;2022-12-20T17:08:42;7.57;;;3.30;;
10661;SDS011;5379;51.034;7.006;2022-12-20T17:11:11;11.00;;;3.73;;
10661;SDS011;5379;51.034;7.006;2022-12-20T17:13:41;12.30;;;4.10;;
10661;SDS011;5379;51.034;7.006;2022-12-20T17:16:09;9.50;;;3.77;;
10661;SDS011;5379;51.034;7.006;2022-12-20T17:18:38;8.43;;;4.27;;
10661;SDS011;5379;51.034;7.006;2022-12-20T17:21:11;14.77;;;4.57;;
10661;SDS011;5379;51.034;7.006;2022-12-20T17:23:47;8.40;;;4.60;;
10661;SDS011;5379;51.034;7.006;2022-12-20T17:26:16;13.80;;;4.93;;
10661;SDS011;5379;51.034;7.006;2022-12-20T17:28:46;6.73;;;4.40;;
10661;SDS011;5379;51.034;7.006;2022-12-20T17:31:19;8.13;;;4.33;;
10661;SDS011;5379;51.034;7.006;2022-12-20T17:33:54;6.63;;;4.03;;
10661;SDS011;5379;51.034;7.006;2022-12-20T17:36:22;4.93;;;4.20;;
10661;SDS011;5379;51.034;7.006;2022-12-20T17:38:50;7.50;;;4.77;;
10661;SDS011;5379;51.034;7.006;2022-12-20T17:41:19;5.63;;;4.60;;
10661;SDS011;5379;51.034;7.006;2022-12-20T17:43:50;11.47;;;4.77;;
10661;SDS011;5379;51.034;7.006;2022-12-20T17:46:17;8.57;;;4.93;;
10661;SDS011;5379;51.034;7.006;2022-12-20T17:48:45;12.13;;;4.57;;
10661;SDS011;5379;51.034;7.006;2022-12-20T17:51:13;4.63;;;3.93;;
10661;SDS011;5379;51.034;7.006;2022-12-20T17:53:42;6.07;;;4.40;;
10661;SDS011;5379;51.034;7.006;2022-12-20T17:56:10;8.60;;;4.43;;
10661;SDS011;5379;51.034;7.006;2022-12-20T17:58:39;14.90;;;4.70;;
10661;SDS011;5379;51.034;7.006;2022-12-20T18:01:08;6.03;;;5.30;;
10661;SDS011;5379;51.034;7.006;2022-12-20T18:03:42;9.80;;;4.30;;
10661;SDS011;5379;51.034;7.006;2022-12-20T18:06:11;6.93;;;3.93;;
10661;SDS011;5379;51.034;7.006;2022-12-20T18:08:46;7.73;;;4.30;;
10661;SDS011;5379;51.034;7.006;2022-12-20T18:11:14;5.37;;;3.77;;
10661;SDS011;5379;51.034;7.006;2022-12-20T18:13:42;5.97;;;4.17;;
10661;SDS011;5379;51.034;7.006;2022-12-20T18:16:11;7.60;;;4.57;;
10661;SDS011;5379;51.034;7.006;2022-12-20T18:18:38;10.30;;;5.03;;
10661;SDS011;5379;51.034;7.006;2022-12-20T18:21:06;8.97;;;4.47;;
10661;SDS011;5379;51.034;7.006;2022-12-20T18:23:35;3.80;;;3.50;;
10661;SDS011;5379;51.034;7.006;2022-12-20T18:26:04;8.47;;;4.87;;
10661;SDS011;5379;51.034;7.006;2022-12-20T18:28:32;5.30;;;4.67;;
10661;SDS011;5379;51.034;7.006;2022-12-20T18:31:00;5.73;;;4.37;;
10661;SDS011;5379;51.034;7.006;2022-12-20T18:33:29;11.40;;;4.70;;
10661;SDS011;5379;51.034;7.006;2022-12-20T18:35:59;5.57;;;4.47;;
10661;SDS011;5379;51.034;7.006;2022-12-20T18:38:27;9.80;;;4.77;;
10661;SDS011;5379;51.034;7.006;2022-12-20T18:40:56;6.93;;;4.63;;
10661;SDS011;5379;51.034;7.006;2022-12-20T18:43:24;7.97;;;4.50;;
10661;SDS011;5379;51.034;7.006;2022-12-20T18:45:52;8.10;;;4.20;;
10661;SDS011;5379;51.034;7.006;2022-12-20T18:48:19;9.37;;;6.63;;
10661;SDS011;5379;51.034;7.006;2022-12-20T18:50:47;9.23;;;5.30;;
10661;SDS011;5379;51.034;7.006;2022-12-20T18:53:14;10.43;;;5.60;;
10661;SDS011;5379;51.034;7.006;2022-12-20T18:55:41;6.37;;;5.10;;
10661;SDS011;5379;51.034;7.006;2022-12-20T18:58:08;11.57;;;6.00;;
10661;SDS011;5379;51.034;7.006;2022-12-20T19:00:35;11.10;;;4.90;;
10661;SDS011;5379;51.034;7.006;2022-12-20T19:03:03;8.53;;;4.83;;
10661;SDS011;5379;51.034;7.006;2022-12-20T19:05:31;6.63;;;5.13;;
10661;SDS011;5379;51.034;7.006;2022-12-20T19:08:00;4.70;;;4.30;;
10661;SDS011;5379;51.034;7.006;2022-12-20T19:10:29;6.90;;;4.83;;
10661;SDS011;5379;51.034;7.006;2022-12-20T19:12:57;7.00;;;4.77;;
10661;SDS011;5379;51.034;7.006;2022-12-20T19:15:24;10.03;;;5.37;;
10661;SDS011;5379;51.034;7.006;2022-12-20T19:17:51;8.50;;;5.30;;
10661;SDS011;5379;51.034;7.006;2022-12-20T19:20:18;7.10;;;4.93;;
10661;SDS011;5379;51.034;7.006;2022-12-20T19:22:45;6.27;;;4.70;;
10661;SDS011;5379;51.034;7.006;2022-12-20T19:25:13;5.67;;;4.37;;
10661;SDS011;5379;51.034;7.006;2022-12-20T19:27:40;5.50;;;4.50;;
10661;SDS011;5379;51.034;7.006;2022-12-20T19:30:07;8.60;;;5.27;;
10661;SDS011;5379;51.034;7.006;2022-12-20T19:32:35;7.60;;;4.73;;
10661;SDS011;5379;51.034;7.006;2022-12-20T19:35:02;6.33;;;4.40;;
10661;SDS011;5379;51.034;7.006;2022-12-20T19:37:29;5.40;;;4.90;;
10661;SDS011;5379;51.034;7.006;2022-12-20T19:39:56;8.70;;;4.77;;
10661;SDS011;5379;51.034;7.006;2022-12-20T19:42:25;10.47;;;5.00;;
10661;SDS011;5379;51.034;7.006;2022-12-20T19:44:52;5.43;;;4.90;;
10661;SDS011;5379;51.034;7.006;2022-12-20T19:47:19;5.97;;;4.93;;
10661;SDS011;5379;51.034;7.006;2022-12-20T19:49:47;9.10;;;5.23;;
10661;SDS011;5379;51.034;7.006;2022-12-20T19:52:15;8.57;;;4.73;;